sensor_id;sensor_type;location;lat;lon;timestamp;pressure;altitude;pressure_sealevel;temperature;humidity
6851;BME280;3464;42.728;23.296;2024-01-30T00:00:47;97194.44;;;10.51;38.16
6851;BME280;3464;42.728;23.296;2024-01-30T00:03:15;97194.68;;;10.26;38.91
6851;BME280;3464;42.728;23.296;2024-01-30T00:05:42;97199.06;;;10.61;38.27
6851;BME280;3464;42.728;23.296;2024-01-30T00:08:09;97193.27;;;11.30;37.51
6851;BME280;3464;42.728;23.296;2024-01-30T00:10:36;97189.66;;;11.69;36.81
6851;BME280;3464;42.728;23.296;2024-01-30T00:13:03;97194.11;;;11.64;36.85
6851;BME280;3464;42.728;23.296;2024-01-30T00:15:30;97195.27;;;11.50;37.11
6851;BME280;3464;42.728;23.296;2024-01-30T00:17:57;97196.47;;;11.37;37.17
6851;BME280;3464;42.728;23.296;2024-01-30T00:20:24;97196.13;;;11.74;36.72
6851;BME280;3464;42.728;23.296;2024-01-30T00:22:50;97190.52;;;12.85;35.50
6851;BME280;3464;42.728;23.296;2024-01-30T00:25:18;97190.93;;;12.98;34.53
6851;BME280;3464;42.728;23.296;2024-01-30T00:27:44;97196.54;;;12.48;35.15
6851;BME280;3464;42.728;23.296;2024-01-30T00:30:11;97200.28;;;11.84;35.83
6851;BME280;3464;42.728;23.296;2024-01-30T00:32:38;97193.05;;;12.18;35.68
6851;BME280;3464;42.728;23.296;2024-01-30T00:35:05;97191.39;;;12.45;35.22
6851;BME280;3464;42.728;23.296;2024-01-30T00:37:33;97199.36;;;12.45;35.50
6851;BME280;3464;42.728;23.296;2024-01-30T00:40:00;97192.17;;;12.18;35.88
6851;BME280;3464;42.728;23.296;2024-01-30T00:42:26;97194.24;;;12.42;35.63
6851;BME280;3464;42.728;23.296;2024-01-30T00:44:53;97192.43;;;12.25;35.75
6851;BME280;3464;42.728;23.296;2024-01-30T00:47:20;97193.50;;;12.20;35.79
6851;BME280;3464;42.728;23.296;2024-01-30T00:49:47;97193.51;;;12.33;35.61
6851;BME280;3464;42.728;23.296;2024-01-30T00:52:15;97200.53;;;11.45;36.71
6851;BME280;3464;42.728;23.296;2024-01-30T00:54:41;97200.20;;;10.91;37.39
6851;BME280;3464;42.728;23.296;2024-01-30T00:57:08;97199.97;;;11.63;36.66
6851;BME280;3464;42.728;23.296;2024-01-30T00:59:36;97201.73;;;10.45;38.00
6851;BME280;3464;42.728;23.296;2024-01-30T01:02:03;97198.09;;;10.38;38.35
6851;BME280;3464;42.728;23.296;2024-01-30T01:04:30;97201.44;;;10.80;38.00
6851;BME280;3464;42.728;23.296;2024-01-30T01:06:56;97199.65;;;10.45;38.43
6851;BME280;3464;42.728;23.296;2024-01-30T01:09:24;97208.52;;;10.16;38.70
6851;BME280;3464;42.728;23.296;2024-01-30T01:11:50;97206.08;;;9.69;39.14
6851;BME280;3464;42.728;23.296;2024-01-30T01:14:17;97209.22;;;9.93;38.97
6851;BME280;3464;42.728;23.296;2024-01-30T01:16:43;97194.92;;;9.82;38.88
6851;BME280;3464;42.728;23.296;2024-01-30T01:19:11;97205.89;;;10.04;38.33
6851;BME280;3464;42.728;23.296;2024-01-30T01:21:37;97200.06;;;10.05;38.62
6851;BME280;3464;42.728;23.296;2024-01-30T01:24:04;97199.73;;;10.27;37.75
6851;BME280;3464;42.728;23.296;2024-01-30T01:26:31;97201.11;;;10.09;38.60
6851;BME280;3464;42.728;23.296;2024-01-30T01:28:58;97203.07;;;10.37;38.17
6851;BME280;3464;42.728;23.296;2024-01-30T01:31:25;97199.40;;;10.60;38.23
6851;BME280;3464;42.728;23.296;2024-01-30T01:33:52;97199.97;;;9.83;38.68
6851;BME280;3464;42.728;23.296;2024-01-30T01:36:20;97197.49;;;9.54;39.23
6851;BME280;3464;42.728;23.296;2024-01-30T01:38:46;97199.54;;;10.43;38.14
6851;BME280;3464;42.728;23.296;2024-01-30T01:41:13;97203.89;;;9.76;39.04
6851;BME280;3464;42.728;23.296;2024-01-30T01:43:39;97210.55;;;9.46;39.51
6851;BME280;3464;42.728;23.296;2024-01-30T01:46:06;97205.53;;;9.37;39.89
6851;BME280;3464;42.728;23.296;2024-01-30T01:48:33;97198.16;;;9.90;39.23
6851;BME280;3464;42.728;23.296;2024-01-30T01:51:00;97207.14;;;9.45;39.53
6851;BME280;3464;42.728;23.296;2024-01-30T01:53:26;97203.63;;;9.90;39.04
6851;BME280;3464;42.728;23.296;2024-01-30T01:55:55;97198.70;;;10.53;38.24
6851;BME280;3464;42.728;23.296;2024-01-30T01:58:23;97200.09;;;10.56;38.13
6851;BME280;3464;42.728;23.296;2024-01-30T02:00:50;97203.16;;;10.70;38.08
6851;BME280;3464;42.728;23.296;2024-01-30T02:03:16;97203.22;;;10.61;37.50
6851;BME280;3464;42.728;23.296;2024-01-30T02:05:44;97207.73;;;10.69;37.81
6851;BME280;3464;42.728;23.296;2024-01-30T02:08:11;97205.03;;;11.19;36.91
6851;BME280;3464;42.728;23.296;2024-01-30T02:10:38;97205.20;;;11.23;36.95
6851;BME280;3464;42.728;23.296;2024-01-30T02:13:05;97200.88;;;10.76;37.55
6851;BME280;3464;42.728;23.296;2024-01-30T02:15:32;97209.94;;;9.71;39.26
6851;BME280;3464;42.728;23.296;2024-01-30T02:18:01;97210.92;;;9.45;38.63
6851;BME280;3464;42.728;23.296;2024-01-30T02:20:28;97210.17;;;10.06;38.35
6851;BME280;3464;42.728;23.296;2024-01-30T02:22:54;97210.16;;;9.86;38.51
6851;BME280;3464;42.728;23.296;2024-01-30T02:25:20;97211.77;;;9.36;39.33
6851;BME280;3464;42.728;23.296;2024-01-30T02:27:47;97198.84;;;10.06;38.73
6851;BME280;3464;42.728;23.296;2024-01-30T02:30:14;97201.24;;;9.64;39.12
6851;BME280;3464;42.728;23.296;2024-01-30T02:32:40;97205.53;;;9.28;39.15
6851;BME280;3464;42.728;23.296;2024-01-30T02:35:07;97207.28;;;10.16;38.11
6851;BME280;3464;42.728;23.296;2024-01-30T02:37:34;97195.75;;;9.92;38.37
6851;BME280;3464;42.728;23.296;2024-01-30T02:40:02;97200.16;;;10.37;37.84
6851;BME280;3464;42.728;23.296;2024-01-30T02:42:29;97200.38;;;9.82;38.45
6851;BME280;3464;42.728;23.296;2024-01-30T02:44:55;97203.94;;;10.47;37.74
6851;BME280;3464;42.728;23.296;2024-01-30T02:47:22;97201.41;;;9.87;38.06
6851;BME280;3464;42.728;23.296;2024-01-30T02:49:48;97208.66;;;9.14;38.51
6851;BME280;3464;42.728;23.296;2024-01-30T02:52:15;97201.13;;;10.00;38.03
6851;BME280;3464;42.728;23.296;2024-01-30T02:54:42;97203.54;;;9.39;39.08
6851;BME280;3464;42.728;23.296;2024-01-30T02:57:09;97205.48;;;9.74;38.22
6851;BME280;3464;42.728;23.296;2024-01-30T02:59:36;97212.45;;;9.33;38.65
6851;BME280;3464;42.728;23.296;2024-01-30T03:02:04;97199.66;;;9.66;38.44
6851;BME280;3464;42.728;23.296;2024-01-30T03:04:30;97212.08;;;9.72;37.96
6851;BME280;3464;42.728;23.296;2024-01-30T03:06:58;97197.88;;;8.97;39.21
6851;BME280;3464;42.728;23.296;2024-01-30T03:09:28;97203.63;;;9.42;38.67
6851;BME280;3464;42.728;23.296;2024-01-30T03:11:54;97195.97;;;9.48;38.39
6851;BME280;3464;42.728;23.296;2024-01-30T03:14:21;97188.19;;;9.72;38.13
6851;BME280;3464;42.728;23.296;2024-01-30T03:16:48;97192.06;;;10.04;37.18
6851;BME280;3464;42.728;23.296;2024-01-30T03:19:15;97201.88;;;9.12;38.67
6851;BME280;3464;42.728;23.296;2024-01-30T03:21:41;97199.28;;;9.47;38.17
6851;BME280;3464;42.728;23.296;2024-01-30T03:24:08;97198.73;;;8.89;38.42
6851;BME280;3464;42.728;23.296;2024-01-30T03:26:35;97195.69;;;9.05;38.57
6851;BME280;3464;42.728;23.296;2024-01-30T03:29:01;97202.91;;;8.71;39.12
6851;BME280;3464;42.728;23.296;2024-01-30T03:31:29;97200.98;;;8.65;38.78
6851;BME280;3464;42.728;23.296;2024-01-30T03:33:56;97196.98;;;8.43;39.26
6851;BME280;3464;42.728;23.296;2024-01-30T03:36:23;97190.41;;;8.81;38.67
6851;BME280;3464;42.728;23.296;2024-01-30T03:38:49;97184.31;;;9.60;37.35
6851;BME280;3464;42.728;23.296;2024-01-30T03:41:16;97179.50;;;9.65;38.04
6851;BME280;3464;42.728;23.296;2024-01-30T03:43:43;97178.86;;;9.40;38.05
6851;BME280;3464;42.728;23.296;2024-01-30T03:46:11;97178.38;;;9.68;37.67
6851;BME280;3464;42.728;23.296;2024-01-30T03:48:38;97179.80;;;9.42;38.12
6851;BME280;3464;42.728;23.296;2024-01-30T03:51:06;97183.81;;;8.74;38.85
6851;BME280;3464;42.728;23.296;2024-01-30T03:53:41;97187.02;;;8.80;38.78
6851;BME280;3464;42.728;23.296;2024-01-30T03:56:08;97174.59;;;8.74;38.74
6851;BME280;3464;42.728;23.296;2024-01-30T03:58:35;97175.77;;;9.09;38.56
6851;BME280;3464;42.728;23.296;2024-01-30T04:01:02;97171.03;;;9.92;37.59
6851;BME280;3464;42.728;23.296;2024-01-30T04:03:29;97175.71;;;9.94;37.14
6851;BME280;3464;42.728;23.296;2024-01-30T04:05:56;97168.80;;;9.59;37.29
6851;BME280;3464;42.728;23.296;2024-01-30T04:08:22;97175.19;;;9.33;37.88
6851;BME280;3464;42.728;23.296;2024-01-30T04:10:49;97174.00;;;9.35;37.94
6851;BME280;3464;42.728;23.296;2024-01-30T04:13:16;97173.00;;;9.60;37.79
6851;BME280;3464;42.728;23.296;2024-01-30T04:15:42;97174.17;;;9.01;38.72
6851;BME280;3464;42.728;23.296;2024-01-30T04:18:09;97173.50;;;9.92;37.28
6851;BME280;3464;42.728;23.296;2024-01-30T04:20:36;97163.62;;;9.95;37.42
6851;BME280;3464;42.728;23.296;2024-01-30T04:23:20;97177.63;;;9.80;37.56
6851;BME280;3464;42.728;23.296;2024-01-30T04:25:46;97169.39;;;10.44;36.50
6851;BME280;3464;42.728;23.296;2024-01-30T04:28:13;97183.95;;;9.42;37.50
6851;BME280;3464;42.728;23.296;2024-01-30T04:30:40;97179.97;;;9.95;37.02
6851;BME280;3464;42.728;23.296;2024-01-30T04:33:08;97178.64;;;10.34;36.61
6851;BME280;3464;42.728;23.296;2024-01-30T04:35:34;97182.80;;;9.93;36.99
6851;BME280;3464;42.728;23.296;2024-01-30T04:38:01;97183.09;;;9.71;37.12
6851;BME280;3464;42.728;23.296;2024-01-30T04:40:28;97189.47;;;9.83;37.46
6851;BME280;3464;42.728;23.296;2024-01-30T04:42:55;97182.92;;;9.86;37.26
6851;BME280;3464;42.728;23.296;2024-01-30T04:45:21;97190.48;;;9.66;37.46
6851;BME280;3464;42.728;23.296;2024-01-30T04:47:48;97192.61;;;10.06;37.15
6851;BME280;3464;42.728;23.296;2024-01-30T04:50:15;97199.08;;;10.20;37.14
6851;BME280;3464;42.728;23.296;2024-01-30T04:52:41;97202.99;;;10.04;37.24
6851;BME280;3464;42.728;23.296;2024-01-30T04:55:08;97202.06;;;11.75;35.80
6851;BME280;3464;42.728;23.296;2024-01-30T04:57:34;97204.72;;;10.99;36.14
6851;BME280;3464;42.728;23.296;2024-01-30T05:00:05;97203.99;;;10.92;36.72
6851;BME280;3464;42.728;23.296;2024-01-30T05:02:32;97219.00;;;9.57;37.66
6851;BME280;3464;42.728;23.296;2024-01-30T05:04:59;97222.59;;;8.89;38.79
6851;BME280;3464;42.728;23.296;2024-01-30T05:07:25;97203.81;;;11.54;35.23
6851;BME280;3464;42.728;23.296;2024-01-30T05:09:53;97207.82;;;10.50;35.88
6851;BME280;3464;42.728;23.296;2024-01-30T05:12:20;97206.61;;;10.72;36.76
6851;BME280;3464;42.728;23.296;2024-01-30T05:14:46;97214.65;;;9.73;37.64
6851;BME280;3464;42.728;23.296;2024-01-30T05:17:13;97218.22;;;9.03;38.54
6851;BME280;3464;42.728;23.296;2024-01-30T05:19:39;97216.08;;;9.67;38.05
6851;BME280;3464;42.728;23.296;2024-01-30T05:22:07;97214.01;;;9.30;39.18
6851;BME280;3464;42.728;23.296;2024-01-30T05:24:36;97218.96;;;10.55;36.56
6851;BME280;3464;42.728;23.296;2024-01-30T05:27:02;97218.83;;;10.63;36.33
6851;BME280;3464;42.728;23.296;2024-01-30T05:29:28;97210.27;;;11.02;36.20
6851;BME280;3464;42.728;23.296;2024-01-30T05:31:55;97211.55;;;10.39;36.67
6851;BME280;3464;42.728;23.296;2024-01-30T05:34:22;97213.93;;;10.99;36.24
6851;BME280;3464;42.728;23.296;2024-01-30T05:36:49;97218.97;;;10.35;36.58
6851;BME280;3464;42.728;23.296;2024-01-30T05:39:15;97207.08;;;10.63;36.54
6851;BME280;3464;42.728;23.296;2024-01-30T05:41:41;97220.61;;;10.24;36.74
6851;BME280;3464;42.728;23.296;2024-01-30T05:44:08;97211.35;;;10.44;36.68
6851;BME280;3464;42.728;23.296;2024-01-30T05:46:35;97222.19;;;10.42;36.70
6851;BME280;3464;42.728;23.296;2024-01-30T05:49:01;97214.56;;;10.93;35.70
6851;BME280;3464;42.728;23.296;2024-01-30T05:51:28;97218.14;;;10.25;36.51
6851;BME280;3464;42.728;23.296;2024-01-30T05:53:54;97213.02;;;11.08;35.83
6851;BME280;3464;42.728;23.296;2024-01-30T05:56:21;97214.81;;;10.46;36.40
6851;BME280;3464;42.728;23.296;2024-01-30T05:58:48;97217.55;;;9.82;37.25
6851;BME280;3464;42.728;23.296;2024-01-30T06:01:15;97217.40;;;10.27;36.47
6851;BME280;3464;42.728;23.296;2024-01-30T06:03:45;97225.84;;;9.71;37.03
6851;BME280;3464;42.728;23.296;2024-01-30T06:09:29;97224.31;;;9.93;36.78
6851;BME280;3464;42.728;23.296;2024-01-30T06:11:56;97215.22;;;11.44;35.43
6851;BME280;3464;42.728;23.296;2024-01-30T06:14:23;97225.60;;;9.55;36.86
6851;BME280;3464;42.728;23.296;2024-01-30T06:20:00;97224.96;;;11.35;35.18
6851;BME280;3464;42.728;23.296;2024-01-30T06:22:27;97226.91;;;11.20;35.07
6851;BME280;3464;42.728;23.296;2024-01-30T06:24:53;97232.39;;;10.35;35.95
6851;BME280;3464;42.728;23.296;2024-01-30T06:27:21;97235.97;;;10.30;36.19
6851;BME280;3464;42.728;23.296;2024-01-30T06:29:48;97226.39;;;10.52;35.91
6851;BME280;3464;42.728;23.296;2024-01-30T06:32:16;97233.00;;;10.29;36.19
6851;BME280;3464;42.728;23.296;2024-01-30T06:34:43;97224.50;;;10.26;36.27
6851;BME280;3464;42.728;23.296;2024-01-30T06:37:09;97228.91;;;10.52;35.80
6851;BME280;3464;42.728;23.296;2024-01-30T06:39:36;97227.68;;;9.84;36.10
6851;BME280;3464;42.728;23.296;2024-01-30T06:42:05;97221.62;;;10.91;35.35
6851;BME280;3464;42.728;23.296;2024-01-30T06:44:31;97224.63;;;9.43;36.70
6851;BME280;3464;42.728;23.296;2024-01-30T06:46:58;97230.34;;;10.78;35.38
6851;BME280;3464;42.728;23.296;2024-01-30T06:49:25;97220.38;;;11.14;34.93
6851;BME280;3464;42.728;23.296;2024-01-30T06:51:52;97218.94;;;11.64;34.23
6851;BME280;3464;42.728;23.296;2024-01-30T06:57:36;97220.81;;;12.43;33.16
6851;BME280;3464;42.728;23.296;2024-01-30T07:00:03;97231.75;;;10.61;35.26
6851;BME280;3464;42.728;23.296;2024-01-30T07:02:30;97229.52;;;11.34;34.66
6851;BME280;3464;42.728;23.296;2024-01-30T07:04:57;97235.27;;;10.23;35.47
6851;BME280;3464;42.728;23.296;2024-01-30T07:07:23;97232.70;;;10.33;36.10
6851;BME280;3464;42.728;23.296;2024-01-30T07:09:50;97226.88;;;10.75;35.17
6851;BME280;3464;42.728;23.296;2024-01-30T07:12:16;97228.68;;;10.89;34.86
6851;BME280;3464;42.728;23.296;2024-01-30T07:14:43;97233.81;;;10.70;35.01
6851;BME280;3464;42.728;23.296;2024-01-30T07:17:10;97221.78;;;12.10;33.70
6851;BME280;3464;42.728;23.296;2024-01-30T07:19:37;97226.98;;;11.22;34.30
6851;BME280;3464;42.728;23.296;2024-01-30T07:22:04;97238.55;;;10.22;35.39
6851;BME280;3464;42.728;23.296;2024-01-30T07:24:30;97236.96;;;10.04;35.72
6851;BME280;3464;42.728;23.296;2024-01-30T07:26:57;97230.11;;;9.92;35.93
6851;BME280;3464;42.728;23.296;2024-01-30T07:29:24;97226.92;;;11.54;34.15
6851;BME280;3464;42.728;23.296;2024-01-30T07:31:51;97231.35;;;10.10;35.62
6851;BME280;3464;42.728;23.296;2024-01-30T07:34:18;97225.34;;;11.33;33.88
6851;BME280;3464;42.728;23.296;2024-01-30T07:36:44;97226.46;;;11.41;34.14
6851;BME280;3464;42.728;23.296;2024-01-30T07:39:11;97233.77;;;10.59;34.63
6851;BME280;3464;42.728;23.296;2024-01-30T07:41:39;97243.69;;;9.95;35.29
6851;BME280;3464;42.728;23.296;2024-01-30T07:44:05;97230.59;;;9.45;35.78
6851;BME280;3464;42.728;23.296;2024-01-30T07:46:32;97235.02;;;10.69;34.37
6851;BME280;3464;42.728;23.296;2024-01-30T07:48:59;97226.30;;;11.49;33.45
6851;BME280;3464;42.728;23.296;2024-01-30T07:51:26;97219.17;;;12.20;33.18
6851;BME280;3464;42.728;23.296;2024-01-30T07:53:52;97222.38;;;10.57;34.67
6851;BME280;3464;42.728;23.296;2024-01-30T07:56:19;97214.91;;;12.96;32.75
6851;BME280;3464;42.728;23.296;2024-01-30T07:58:46;97223.90;;;12.87;31.89
6851;BME280;3464;42.728;23.296;2024-01-30T08:01:12;97219.36;;;12.01;32.78
6851;BME280;3464;42.728;23.296;2024-01-30T08:03:40;97224.73;;;12.10;32.82
6851;BME280;3464;42.728;23.296;2024-01-30T08:06:07;97213.66;;;12.31;33.02
6851;BME280;3464;42.728;23.296;2024-01-30T08:08:33;97216.55;;;11.58;33.70
6851;BME280;3464;42.728;23.296;2024-01-30T08:11:01;97227.02;;;12.15;33.37
6851;BME280;3464;42.728;23.296;2024-01-30T08:13:27;97216.45;;;12.52;32.97
6851;BME280;3464;42.728;23.296;2024-01-30T08:15:54;97214.62;;;12.87;32.38
6851;BME280;3464;42.728;23.296;2024-01-30T08:18:20;97218.56;;;12.66;32.19
6851;BME280;3464;42.728;23.296;2024-01-30T08:20:47;97210.94;;;12.77;32.85
6851;BME280;3464;42.728;23.296;2024-01-30T08:23:13;97228.81;;;12.70;32.30
6851;BME280;3464;42.728;23.296;2024-01-30T08:25:40;97234.69;;;11.94;33.35
6851;BME280;3464;42.728;23.296;2024-01-30T08:28:06;97218.33;;;13.69;31.81
6851;BME280;3464;42.728;23.296;2024-01-30T08:30:34;97230.02;;;11.80;33.02
6851;BME280;3464;42.728;23.296;2024-01-30T08:33:00;97237.17;;;12.17;33.56
6851;BME280;3464;42.728;23.296;2024-01-30T08:35:27;97229.77;;;11.29;34.16
6851;BME280;3464;42.728;23.296;2024-01-30T08:37:54;97226.70;;;11.03;34.51
6851;BME280;3464;42.728;23.296;2024-01-30T08:40:21;97237.54;;;11.68;34.04
6851;BME280;3464;42.728;23.296;2024-01-30T08:42:47;97249.43;;;10.51;35.04
6851;BME280;3464;42.728;23.296;2024-01-30T08:45:14;97252.48;;;10.54;35.10
6851;BME280;3464;42.728;23.296;2024-01-30T08:47:41;97259.45;;;10.71;35.28
6851;BME280;3464;42.728;23.296;2024-01-30T08:50:08;97239.30;;;10.29;35.61
6851;BME280;3464;42.728;23.296;2024-01-30T08:52:35;97250.37;;;10.14;35.72
6851;BME280;3464;42.728;23.296;2024-01-30T08:55:01;97239.77;;;10.51;35.83
6851;BME280;3464;42.728;23.296;2024-01-30T08:57:28;97234.94;;;11.10;34.89
6851;BME280;3464;42.728;23.296;2024-01-30T08:59:54;97263.64;;;10.10;36.09
6851;BME280;3464;42.728;23.296;2024-01-30T09:02:21;97251.25;;;9.76;36.77
6851;BME280;3464;42.728;23.296;2024-01-30T09:04:48;97254.08;;;10.22;36.49
6851;BME280;3464;42.728;23.296;2024-01-30T09:07:14;97260.69;;;11.47;34.61
6851;BME280;3464;42.728;23.296;2024-01-30T09:09:41;97249.87;;;12.45;33.67
6851;BME280;3464;42.728;23.296;2024-01-30T09:12:07;97245.00;;;12.37;33.99
6851;BME280;3464;42.728;23.296;2024-01-30T09:14:34;97255.00;;;13.39;32.64
6851;BME280;3464;42.728;23.296;2024-01-30T09:17:02;97260.44;;;12.33;33.79
6851;BME280;3464;42.728;23.296;2024-01-30T09:19:28;97243.23;;;12.99;33.13
6851;BME280;3464;42.728;23.296;2024-01-30T09:21:55;97247.23;;;12.04;33.58
6851;BME280;3464;42.728;23.296;2024-01-30T09:24:21;97249.37;;;12.17;33.67
6851;BME280;3464;42.728;23.296;2024-01-30T09:26:48;97241.81;;;12.55;33.39
6851;BME280;3464;42.728;23.296;2024-01-30T09:29:15;97229.53;;;13.47;32.40
6851;BME280;3464;42.728;23.296;2024-01-30T09:31:44;97235.75;;;13.02;32.63
6851;BME280;3464;42.728;23.296;2024-01-30T09:34:11;97236.49;;;12.34;33.18
6851;BME280;3464;42.728;23.296;2024-01-30T09:36:37;97237.16;;;11.81;33.49
6851;BME280;3464;42.728;23.296;2024-01-30T09:39:04;97222.06;;;12.70;32.79
6851;BME280;3464;42.728;23.296;2024-01-30T09:41:32;97230.12;;;11.71;33.07
6851;BME280;3464;42.728;23.296;2024-01-30T09:43:58;97226.89;;;11.75;33.41
6851;BME280;3464;42.728;23.296;2024-01-30T09:46:25;97232.94;;;11.58;33.52
6851;BME280;3464;42.728;23.296;2024-01-30T09:48:51;97215.78;;;12.45;32.77
6851;BME280;3464;42.728;23.296;2024-01-30T09:51:19;97235.66;;;12.73;32.51
6851;BME280;3464;42.728;23.296;2024-01-30T09:53:45;97214.72;;;12.25;32.70
6851;BME280;3464;42.728;23.296;2024-01-30T09:56:13;97209.13;;;12.87;32.11
6851;BME280;3464;42.728;23.296;2024-01-30T09:58:39;97210.47;;;12.37;32.61
6851;BME280;3464;42.728;23.296;2024-01-30T10:01:06;97211.25;;;12.35;33.05
6851;BME280;3464;42.728;23.296;2024-01-30T10:03:33;97207.64;;;12.28;32.49
6851;BME280;3464;42.728;23.296;2024-01-30T10:06:02;97223.08;;;12.75;32.03
6851;BME280;3464;42.728;23.296;2024-01-30T10:08:29;97205.53;;;12.54;32.71
6851;BME280;3464;42.728;23.296;2024-01-30T10:10:56;97203.95;;;12.30;32.92
6851;BME280;3464;42.728;23.296;2024-01-30T10:13:23;97208.33;;;12.35;32.95
6851;BME280;3464;42.728;23.296;2024-01-30T10:15:50;97194.16;;;13.49;32.20
6851;BME280;3464;42.728;23.296;2024-01-30T10:18:16;97201.30;;;12.78;31.88
6851;BME280;3464;42.728;23.296;2024-01-30T10:20:43;97207.48;;;11.74;33.14
6851;BME280;3464;42.728;23.296;2024-01-30T10:23:09;97207.76;;;12.44;33.03
6851;BME280;3464;42.728;23.296;2024-01-30T10:25:36;97210.44;;;13.58;31.42
6851;BME280;3464;42.728;23.296;2024-01-30T10:28:03;97200.76;;;13.15;31.83
6851;BME280;3464;42.728;23.296;2024-01-30T10:30:31;97204.83;;;13.25;31.65
6851;BME280;3464;42.728;23.296;2024-01-30T10:33:00;97193.73;;;13.07;31.82
6851;BME280;3464;42.728;23.296;2024-01-30T10:35:27;97197.68;;;12.31;32.22
6851;BME280;3464;42.728;23.296;2024-01-30T10:37:54;97191.36;;;14.02;30.99
6851;BME280;3464;42.728;23.296;2024-01-30T10:40:21;97211.75;;;12.24;32.03
6851;BME280;3464;42.728;23.296;2024-01-30T10:42:48;97211.41;;;12.02;32.93
6851;BME280;3464;42.728;23.296;2024-01-30T10:45:15;97206.38;;;13.07;31.88
6851;BME280;3464;42.728;23.296;2024-01-30T10:47:48;97206.99;;;11.72;33.16
6851;BME280;3464;42.728;23.296;2024-01-30T10:50:13;97198.93;;;12.19;32.94
6851;BME280;3464;42.728;23.296;2024-01-30T10:52:40;97199.48;;;12.35;32.55
6851;BME280;3464;42.728;23.296;2024-01-30T10:55:07;97197.48;;;11.89;33.19
6851;BME280;3464;42.728;23.296;2024-01-30T10:57:34;97178.28;;;13.54;31.86
6851;BME280;3464;42.728;23.296;2024-01-30T11:00:02;97181.42;;;13.47;31.75
6851;BME280;3464;42.728;23.296;2024-01-30T11:02:27;97175.53;;;13.32;31.82
6851;BME280;3464;42.728;23.296;2024-01-30T11:04:57;97187.59;;;12.45;32.42
6851;BME280;3464;42.728;23.296;2024-01-30T11:07:26;97169.53;;;12.59;32.89
6851;BME280;3464;42.728;23.296;2024-01-30T11:09:54;97175.46;;;12.48;32.76
6851;BME280;3464;42.728;23.296;2024-01-30T11:12:23;97171.13;;;12.56;33.18
6851;BME280;3464;42.728;23.296;2024-01-30T11:15:03;97171.28;;;12.09;33.22
6851;BME280;3464;42.728;23.296;2024-01-30T11:17:47;97176.55;;;11.67;33.51
6851;BME280;3464;42.728;23.296;2024-01-30T11:20:15;97157.23;;;12.31;33.68
6851;BME280;3464;42.728;23.296;2024-01-30T11:22:44;97167.03;;;12.21;33.48
6851;BME280;3464;42.728;23.296;2024-01-30T11:25:11;97176.53;;;10.87;34.95
6851;BME280;3464;42.728;23.296;2024-01-30T11:27:37;97159.97;;;11.86;34.08
6851;BME280;3464;42.728;23.296;2024-01-30T11:30:04;97153.86;;;12.17;33.38
6851;BME280;3464;42.728;23.296;2024-01-30T11:32:31;97165.00;;;11.98;33.52
6851;BME280;3464;42.728;23.296;2024-01-30T11:34:58;97141.56;;;13.39;32.45
6851;BME280;3464;42.728;23.296;2024-01-30T11:37:25;97152.23;;;12.99;32.58
6851;BME280;3464;42.728;23.296;2024-01-30T11:39:53;97160.99;;;11.44;34.42
6851;BME280;3464;42.728;23.296;2024-01-30T11:45:14;97150.48;;;12.05;33.66
6851;BME280;3464;42.728;23.296;2024-01-30T11:47:41;97149.66;;;12.44;33.41
6851;BME280;3464;42.728;23.296;2024-01-30T11:50:07;97142.37;;;13.08;32.94
6851;BME280;3464;42.728;23.296;2024-01-30T11:52:34;97147.87;;;12.95;32.89
6851;BME280;3464;42.728;23.296;2024-01-30T11:55:00;97156.88;;;12.20;33.44
6851;BME280;3464;42.728;23.296;2024-01-30T11:57:27;97144.13;;;12.55;33.67
6851;BME280;3464;42.728;23.296;2024-01-30T11:59:55;97148.39;;;12.31;33.18
6851;BME280;3464;42.728;23.296;2024-01-30T12:02:21;97145.17;;;12.75;33.38
6851;BME280;3464;42.728;23.296;2024-01-30T12:04:47;97135.23;;;12.53;32.87
6851;BME280;3464;42.728;23.296;2024-01-30T12:07:15;97117.14;;;13.10;32.58
6851;BME280;3464;42.728;23.296;2024-01-30T12:09:51;97118.89;;;12.03;33.43
6851;BME280;3464;42.728;23.296;2024-01-30T12:18:21;97099.73;;;13.20;32.39
6851;BME280;3464;42.728;23.296;2024-01-30T12:23:38;97089.03;;;13.45;32.16
6851;BME280;3464;42.728;23.296;2024-01-30T12:26:05;97094.22;;;13.99;31.55
6851;BME280;3464;42.728;23.296;2024-01-30T12:40:59;97085.40;;;14.01;31.44
6851;BME280;3464;42.728;23.296;2024-01-30T12:43:30;97092.80;;;13.28;32.20
6851;BME280;3464;42.728;23.296;2024-01-30T12:45:58;97092.20;;;13.22;32.47
6851;BME280;3464;42.728;23.296;2024-01-30T12:48:24;97085.33;;;12.60;33.26
6851;BME280;3464;42.728;23.296;2024-01-30T12:50:54;97072.75;;;13.50;32.39
6851;BME280;3464;42.728;23.296;2024-01-30T12:53:25;97081.58;;;13.82;31.22
6851;BME280;3464;42.728;23.296;2024-01-30T12:55:52;97087.01;;;13.17;32.43
6851;BME280;3464;42.728;23.296;2024-01-30T12:58:21;97079.73;;;12.29;33.18
6851;BME280;3464;42.728;23.296;2024-01-30T13:00:47;97088.34;;;11.95;34.05
6851;BME280;3464;42.728;23.296;2024-01-30T13:03:14;97080.08;;;11.50;34.24
6851;BME280;3464;42.728;23.296;2024-01-30T13:06:04;97088.71;;;11.21;34.46
6851;BME280;3464;42.728;23.296;2024-01-30T13:08:48;97070.53;;;11.90;33.96
6851;BME280;3464;42.728;23.296;2024-01-30T13:11:17;97073.89;;;11.91;33.70
6851;BME280;3464;42.728;23.296;2024-01-30T13:13:51;97078.23;;;11.21;34.75
6851;BME280;3464;42.728;23.296;2024-01-30T13:16:18;97061.91;;;12.10;34.02
6851;BME280;3464;42.728;23.296;2024-01-30T13:18:44;97056.89;;;12.39;33.37
6851;BME280;3464;42.728;23.296;2024-01-30T13:21:11;97057.67;;;12.37;33.64
6851;BME280;3464;42.728;23.296;2024-01-30T13:23:38;97054.20;;;12.91;33.14
6851;BME280;3464;42.728;23.296;2024-01-30T13:26:05;97060.73;;;12.13;33.76
6851;BME280;3464;42.728;23.296;2024-01-30T13:28:31;97048.69;;;13.18;32.53
6851;BME280;3464;42.728;23.296;2024-01-30T13:30:58;97053.14;;;13.12;32.32
6851;BME280;3464;42.728;23.296;2024-01-30T13:33:25;97054.05;;;12.56;33.15
6851;BME280;3464;42.728;23.296;2024-01-30T13:35:55;97049.39;;;13.45;32.51
6851;BME280;3464;42.728;23.296;2024-01-30T13:38:23;97054.13;;;13.82;32.01
6851;BME280;3464;42.728;23.296;2024-01-30T13:40:51;97052.65;;;14.43;31.09
6851;BME280;3464;42.728;23.296;2024-01-30T13:43:19;97056.73;;;14.37;31.03
6851;BME280;3464;42.728;23.296;2024-01-30T13:45:45;97064.29;;;12.60;33.16